createdAt,value
2022-12-27T00:01:30.092Z,96780.46
2022-12-27T00:04:00.580Z,96785.14
2022-12-27T00:06:30.955Z,96779.98
2022-12-27T00:09:02.783Z,96785.92
2022-12-27T00:11:34.794Z,96775.82
2022-12-27T00:14:07.153Z,96771.79
2022-12-27T00:16:37.942Z,96768.74
2022-12-27T00:19:08.470Z,96767.25
2022-12-27T00:21:38.984Z,96770.05
2022-12-27T00:24:10.830Z,96773.23
2022-12-27T00:26:41.489Z,96778.86
2022-12-27T00:29:12.233Z,96776.74
2022-12-27T00:31:42.543Z,96772.99
2022-12-27T00:34:13.031Z,96765.54
2022-12-27T00:36:43.533Z,96766.63
2022-12-27T00:39:13.989Z,96762.34
2022-12-27T00:41:43.618Z,96758.86
2022-12-27T00:44:13.798Z,96752.16
2022-12-27T00:46:43.589Z,96757.27
2022-12-27T00:49:13.254Z,96763.22
2022-12-27T00:51:43.696Z,96755.45
2022-12-27T00:54:13.659Z,96756.78
2022-12-27T00:56:43.110Z,96757.04
2022-12-27T00:59:13.764Z,96761.80
2022-12-27T01:01:44.075Z,96760.28
2022-12-27T01:04:14.751Z,96752.23
2022-12-27T01:06:44.717Z,96742.89
2022-12-27T01:09:14.715Z,96737.45
2022-12-27T01:11:43.877Z,96739.09
2022-12-27T01:14:14.215Z,96745.05
2022-12-27T01:16:44.712Z,96748.30
2022-12-27T01:19:15.363Z,96750.16
2022-12-27T01:21:45.297Z,96745.52
2022-12-27T01:24:15.706Z,96739.30
2022-12-27T01:26:45.505Z,96739.27
2022-12-27T01:29:16.044Z,96739.87
2022-12-27T01:31:46.486Z,96728.33
2022-12-27T01:34:17.970Z,96727.41
2022-12-27T01:36:48.241Z,96723.99
2022-12-27T01:39:18.643Z,96725.77
2022-12-27T01:42:08.396Z,96715.17
2022-12-27T01:44:44.170Z,96709.14
2022-12-27T01:47:21.597Z,96706.70
2022-12-27T01:50:21.004Z,96705.67
2022-12-27T01:53:15.017Z,96703.23
2022-12-27T01:55:53.977Z,96692.42
2022-12-27T01:58:48.147Z,96695.73
2022-12-27T02:01:25.858Z,96691.54
2022-12-27T02:04:05.928Z,96697.61
2022-12-27T02:06:37.792Z,96699.10
2022-12-27T02:09:25.896Z,96699.45
2022-12-27T02:11:57.745Z,96694.77
2022-12-27T02:14:43.265Z,96699.14
2022-12-27T02:17:15.080Z,96700.65
2022-12-27T02:20:02.019Z,96707.48
2022-12-27T02:23:28.689Z,96700.66
2022-12-27T02:26:21.248Z,96693.06
2022-12-27T02:29:34.117Z,96687.58
2022-12-27T02:32:27.956Z,96688.08
2022-12-27T02:35:15.403Z,96683.44
2022-12-27T02:38:16.030Z,96691.40
2022-12-27T02:41:10.456Z,96685.13
2022-12-27T02:44:00.657Z,96680.05
2022-12-27T02:46:52.727Z,96678.67
2022-12-27T02:49:51.444Z,96675.39
2022-12-27T02:53:04.609Z,96661.39
2022-12-27T02:56:16.262Z,96667.35
2022-12-27T02:59:02.082Z,96674.39
2022-12-27T03:02:33.330Z,96678.85
2022-12-27T03:05:24.499Z,96667.00
2022-12-27T03:08:16.868Z,96666.30
2022-12-27T03:11:20.327Z,96667.00
2022-12-27T03:14:37.871Z,96667.27
2022-12-27T03:17:20.357Z,96665.60
2022-12-27T03:20:15.272Z,96654.79
2022-12-27T03:23:07.100Z,96652.11
2022-12-27T03:25:40.113Z,96649.61
2022-12-27T03:28:36.524Z,96653.02
2022-12-27T03:31:36.346Z,96648.55
2022-12-27T03:34:28.979Z,96643.08
2022-12-27T03:37:24.017Z,96634.75
2022-12-27T03:40:12.184Z,96626.86
2022-12-27T03:43:12.372Z,96616.61
2022-12-27T03:46:01.935Z,96612.15
2022-12-27T03:48:40.059Z,96612.39
2022-12-27T03:51:09.893Z,96617.47
2022-12-27T03:53:45.047Z,96618.27
2022-12-27T03:56:15.917Z,96618.03
2022-12-27T03:58:46.870Z,96614.33
2022-12-27T04:01:17.269Z,96621.75
2022-12-27T04:03:47.995Z,96629.59
2022-12-27T04:06:18.946Z,96631.89
2022-12-27T04:09:09.695Z,96635.77
2022-12-27T04:11:59.356Z,96644.16
2022-12-27T04:14:49.636Z,96637.51
2022-12-27T04:17:37.592Z,96635.31
2022-12-27T04:20:27.448Z,96638.66
2022-12-27T04:23:17.723Z,96638.80
2022-12-27T04:26:07.179Z,96642.11
2022-12-27T04:28:57.039Z,96643.66
2022-12-27T04:31:45.814Z,96649.27
2022-12-27T04:34:35.536Z,96656.85
2022-12-27T04:37:06.547Z,96656.79
2022-12-27T04:39:36.864Z,96657.73
2022-12-27T04:42:26.461Z,96659.83
2022-12-27T04:45:16.013Z,96660.34
2022-12-27T04:48:06.568Z,96661.17
2022-12-27T04:50:57.065Z,96666.38
2022-12-27T04:53:47.824Z,96664.74
2022-12-27T04:56:16.806Z,96668.08
2022-12-27T04:59:08.694Z,96671.23
2022-12-27T05:01:57.461Z,96670.53
2022-12-27T05:04:27.098Z,96678.69
2022-12-27T05:06:59.214Z,96679.81
2022-12-27T05:09:49.453Z,96669.08
2022-12-27T05:12:38.517Z,96666.98
2022-12-27T05:15:09.553Z,96665.46
2022-12-27T05:17:39.455Z,96657.60
2022-12-27T05:20:10.284Z,96648.95
2022-12-27T05:22:58.549Z,96642.65
2022-12-27T05:25:35.791Z,96650.15
2022-12-27T05:28:07.488Z,96653.80
2022-12-27T05:30:40.152Z,96656.27
2022-12-27T05:33:12.371Z,96662.86
2022-12-27T05:35:43.006Z,96657.13
2022-12-27T05:38:12.999Z,96664.90
2022-12-27T05:40:43.134Z,96667.17
2022-12-27T05:43:13.110Z,96673.06
2022-12-27T05:45:44.141Z,96677.81
2022-12-27T05:48:14.652Z,96680.48
2022-12-27T05:50:44.718Z,96682.55
2022-12-27T05:53:15.433Z,96683.36
2022-12-27T05:55:45.448Z,96683.92
2022-12-27T05:58:21.523Z,96691.27
2022-12-27T06:00:52.728Z,96699.42
2022-12-27T06:03:25.205Z,96697.29
2022-12-27T06:06:02.258Z,96693.55
2022-12-27T06:08:33.311Z,96695.09
2022-12-27T06:11:11.097Z,96699.12
2022-12-27T06:13:42.861Z,96703.55
2022-12-27T06:16:13.386Z,96701.13
2022-12-27T06:18:43.813Z,96704.69
2022-12-27T06:21:19.858Z,96701.67
2022-12-27T06:23:52.437Z,96705.45
2022-12-27T06:26:26.523Z,96712.45
2022-12-27T06:28:58.159Z,96718.46
2022-12-27T06:31:28.947Z,96721.09
2022-12-27T06:33:59.379Z,96722.77
2022-12-27T06:36:32.917Z,96729.05
2022-12-27T06:39:04.189Z,96734.90
2022-12-27T06:41:34.638Z,96747.27
2022-12-27T06:44:05.233Z,96747.31
2022-12-27T06:46:38.444Z,96750.33
2022-12-27T06:49:12.155Z,96757.94
2022-12-27T06:51:44.291Z,96758.81
2022-12-27T06:54:18.797Z,96758.59
2022-12-27T06:56:48.804Z,96761.00
2022-12-27T06:59:18.502Z,96762.45
2022-12-27T07:01:48.541Z,96765.90
2022-12-27T07:04:18.328Z,96770.39
2022-12-27T07:06:47.506Z,96778.10
2022-12-27T07:09:17.500Z,96783.63
2022-12-27T07:11:47.653Z,96786.69
2022-12-27T07:14:17.843Z,96785.09
2022-12-27T07:16:49.991Z,96779.70
2022-12-27T07:19:20.226Z,96780.09
2022-12-27T07:21:50.364Z,96780.73
2022-12-27T07:24:20.416Z,96775.78
2022-12-27T07:26:50.846Z,96776.37
2022-12-27T07:29:21.512Z,96770.55
2022-12-27T07:31:51.923Z,96776.80
2022-12-27T07:34:24.788Z,96767.86
2022-12-27T07:36:54.909Z,96768.09
2022-12-27T07:39:25.229Z,96774.49
2022-12-27T07:41:55.001Z,96768.96
2022-12-27T07:44:28.038Z,96768.16
2022-12-27T07:46:57.028Z,96761.38
2022-12-27T07:49:27.092Z,96752.08
2022-12-27T07:51:56.472Z,96744.05
2022-12-27T07:54:26.561Z,96741.41
2022-12-27T07:56:55.385Z,96739.89
2022-12-27T07:59:27.997Z,96737.78
2022-12-27T08:02:08.270Z,96731.29
2022-12-27T08:04:40.183Z,96720.39
2022-12-27T08:07:13.843Z,96711.48
2022-12-27T08:09:47.802Z,96724.83
2022-12-27T08:12:18.247Z,96739.25
2022-12-27T08:14:49.369Z,96746.14
2022-12-27T08:17:31.200Z,96755.41
2022-12-27T08:20:01.898Z,96756.93
2022-12-27T08:22:32.356Z,96769.45
2022-12-27T08:25:02.951Z,96779.36
2022-12-27T08:27:32.958Z,96780.33
2022-12-27T08:30:03.302Z,96778.63
2022-12-27T08:32:33.899Z,96772.60
2022-12-27T08:35:25.334Z,96787.98
2022-12-27T08:37:55.704Z,96793.40
2022-12-27T08:40:25.868Z,96794.02
2022-12-27T08:42:56.770Z,96792.92
2022-12-27T08:45:27.423Z,96811.90
2022-12-27T08:48:01.091Z,96801.64
2022-12-27T08:50:33.562Z,96798.41
2022-12-27T08:53:05.328Z,96797.06
2022-12-27T08:55:35.773Z,96790.67
2022-12-27T08:58:13.803Z,96789.81
2022-12-27T09:00:46.406Z,96795.95
2022-12-27T09:03:19.675Z,96797.70
2022-12-27T09:05:53.252Z,96796.63
2022-12-27T09:08:22.927Z,96804.16
2022-12-27T09:10:53.424Z,96806.45
2022-12-27T09:13:23.414Z,96805.38
2022-12-27T09:15:52.547Z,96805.73
2022-12-27T09:18:22.621Z,96806.16
2022-12-27T09:20:52.610Z,96800.47
2022-12-27T09:23:24.057Z,96796.55
2022-12-27T09:25:54.296Z,96789.44
2022-12-27T09:28:24.405Z,96785.73
2022-12-27T09:30:54.544Z,96789.34
2022-12-27T09:33:24.205Z,96785.70
2022-12-27T09:35:54.626Z,96784.64
2022-12-27T09:38:23.865Z,96788.16
2022-12-27T09:40:56.109Z,96778.73
2022-12-27T09:43:40.790Z,96780.63
2022-12-27T09:46:26.674Z,96781.85
2022-12-27T09:48:57.673Z,96780.93
2022-12-27T09:51:43.000Z,96779.54
2022-12-27T09:54:16.430Z,96778.98
2022-12-27T09:57:18.270Z,96780.44
2022-12-27T09:59:45.323Z,96774.75
2022-12-27T10:02:26.781Z,96772.38
2022-12-27T10:07:59.947Z,96768.46
2022-12-27T10:10:46.380Z,96778.77
2022-12-27T10:13:19.754Z,96779.84
2022-12-27T10:16:21.240Z,96788.01
2022-12-27T10:19:36.823Z,96783.67
2022-12-27T10:22:39.329Z,96791.50
2022-12-27T10:25:15.554Z,96797.50
2022-12-27T10:27:49.117Z,96802.29
2022-12-27T10:30:21.689Z,96800.33
2022-12-27T10:32:52.405Z,96803.89
2022-12-27T10:35:23.178Z,96792.56
2022-12-27T10:37:54.664Z,96798.55
2022-12-27T10:40:34.653Z,96800.94
2022-12-27T10:43:12.423Z,96792.88
2022-12-27T10:45:43.267Z,96776.21
2022-12-27T10:48:16.805Z,96778.17
2022-12-27T10:51:09.376Z,96782.23
2022-12-27T10:53:53.197Z,96780.14
2022-12-27T10:56:32.410Z,96790.49
2022-12-27T10:59:12.685Z,96798.38
2022-12-27T11:01:47.633Z,96790.98
2022-12-27T11:04:23.768Z,96792.09
2022-12-27T11:07:02.404Z,96799.66
2022-12-27T11:09:50.619Z,96800.30
2022-12-27T11:12:33.429Z,96791.40
2022-12-27T11:15:19.235Z,96800.00
2022-12-27T11:17:58.402Z,96788.58
2022-12-27T11:20:55.907Z,96786.89
2022-12-27T11:23:36.005Z,96801.74
2022-12-27T11:26:18.442Z,96806.84
2022-12-27T11:29:01.417Z,96799.34
2022-12-27T11:31:48.040Z,96791.44
2022-12-27T11:34:19.851Z,96797.87
2022-12-27T11:36:53.970Z,96798.80
2022-12-27T11:39:39.886Z,96806.39
2022-12-27T11:42:26.502Z,96804.39
2022-12-27T11:45:24.734Z,96804.73
2022-12-27T11:48:26.464Z,96809.39
2022-12-27T11:51:33.791Z,96803.45
2022-12-27T11:54:09.244Z,96805.88
2022-12-27T11:56:45.963Z,96807.20
2022-12-27T11:59:49.475Z,96806.44
2022-12-27T12:02:27.580Z,96811.01
2022-12-27T12:05:04.880Z,96801.13
2022-12-27T12:07:54.946Z,96806.45
2022-12-27T12:10:39.120Z,96827.11
2022-12-27T12:13:41.460Z,96841.47
2022-12-27T12:16:27.453Z,96845.67
2022-12-27T12:19:13.893Z,96848.06
2022-12-27T12:22:11.217Z,96851.77
2022-12-27T12:25:07.017Z,96852.28
2022-12-27T12:28:38.532Z,96850.84
2022-12-27T12:31:51.103Z,96864.08
2022-12-27T12:34:47.173Z,96870.61
2022-12-27T12:37:36.118Z,96876.16
2022-12-27T12:40:28.967Z,96879.09
2022-12-27T12:43:30.462Z,96870.60
2022-12-27T12:46:34.220Z,96873.27
2022-12-27T12:49:12.726Z,96881.48
2022-12-27T12:52:12.034Z,96888.77
2022-12-27T12:55:14.110Z,96901.18
2022-12-27T12:58:04.074Z,96903.79
2022-12-27T13:00:50.418Z,96894.46
2022-12-27T13:03:36.910Z,96889.33
2022-12-27T13:06:10.577Z,96895.14
2022-12-27T13:09:05.051Z,96900.63
2022-12-27T13:12:00.826Z,96901.40
2022-12-27T13:14:59.684Z,96901.88
2022-12-27T13:17:59.916Z,96897.86
2022-12-27T13:20:57.546Z,96896.60
2022-12-27T13:23:38.535Z,96895.83
2022-12-27T13:26:08.561Z,96909.52
2022-12-27T13:28:50.351Z,96906.98
2022-12-27T13:31:34.017Z,96915.34
2022-12-27T13:34:24.888Z,96918.24
2022-12-27T13:37:14.062Z,96926.80
2022-12-27T13:39:53.182Z,96924.88
2022-12-27T13:42:44.969Z,96927.81
2022-12-27T13:45:20.919Z,96920.06
2022-12-27T13:48:21.317Z,96924.27
2022-12-27T13:51:05.023Z,96918.29
2022-12-27T13:53:54.128Z,96929.04
2022-12-27T13:57:00.383Z,96926.49
2022-12-27T13:59:47.826Z,96932.52
2022-12-27T14:02:58.242Z,96928.34
2022-12-27T14:06:03.631Z,96931.12
2022-12-27T14:09:00.204Z,96942.42
2022-12-27T14:12:08.096Z,96937.38
2022-12-27T14:14:41.899Z,96951.95
2022-12-27T14:17:20.633Z,96948.36
2022-12-27T14:19:59.079Z,96952.94
2022-12-27T14:22:41.642Z,96969.04
2022-12-27T14:25:53.906Z,96960.93
2022-12-27T14:28:46.547Z,96963.64
2022-12-27T14:31:48.253Z,96981.55
2022-12-27T14:34:42.054Z,96999.30
2022-12-27T14:37:39.139Z,97000.02
2022-12-27T14:40:39.637Z,96995.59
2022-12-27T14:43:40.611Z,96988.20
2022-12-27T14:46:47.300Z,96997.13
2022-12-27T14:49:27.558Z,96998.17
2022-12-27T14:52:12.395Z,96994.27
2022-12-27T14:54:49.554Z,96989.19
2022-12-27T14:58:01.270Z,97010.80
2022-12-27T15:01:12.463Z,97018.23
2022-12-27T15:04:21.270Z,97037.50
2022-12-27T15:07:03.750Z,97059.45
2022-12-27T15:09:47.888Z,97063.06
2022-12-27T15:12:38.036Z,97072.45
2022-12-27T15:15:48.288Z,97077.11
2022-12-27T15:18:29.400Z,97079.54
2022-12-27T15:21:41.301Z,97086.91
2022-12-27T15:24:26.281Z,97098.10
2022-12-27T15:27:09.395Z,97093.51
2022-12-27T15:29:50.441Z,97105.09
2022-12-27T15:32:29.307Z,97113.23
2022-12-27T15:35:29.397Z,97112.80
2022-12-27T15:38:19.143Z,97114.17
2022-12-27T15:41:09.146Z,97121.52
2022-12-27T15:43:54.415Z,97122.23
2022-12-27T15:46:58.436Z,97127.35
2022-12-27T15:49:48.301Z,97129.60
2022-12-27T15:52:44.149Z,97137.84
2022-12-27T15:55:47.894Z,97138.33
2022-12-27T15:58:25.463Z,97151.32
2022-12-27T16:01:27.813Z,97166.40
2022-12-27T16:03:58.997Z,97177.83
2022-12-27T16:06:36.969Z,97187.92
2022-12-27T16:09:25.645Z,97188.36
2022-12-27T16:12:09.102Z,97195.52
2022-12-27T16:14:42.720Z,97200.86
2022-12-27T16:17:33.905Z,97206.38
2022-12-27T16:20:21.060Z,97203.70
2022-12-27T16:22:57.266Z,97203.58
2022-12-27T16:25:34.258Z,97206.28
2022-12-27T16:28:06.609Z,97214.58
2022-12-27T16:30:43.987Z,97212.98
2022-12-27T16:33:33.861Z,97231.79
2022-12-27T16:36:16.175Z,97226.54
2022-12-27T16:38:59.087Z,97221.67
2022-12-27T16:41:28.305Z,97235.77
2022-12-27T16:44:01.850Z,97247.70
2022-12-27T16:46:52.473Z,97242.80
2022-12-27T16:49:38.911Z,97240.75
2022-12-27T16:52:17.357Z,97240.73
2022-12-27T16:55:03.600Z,97252.25
2022-12-27T16:57:49.186Z,97255.63
2022-12-27T17:00:39.524Z,97255.40
2022-12-27T17:03:28.232Z,97255.17
2022-12-27T17:09:09.489Z,97269.67
2022-12-27T17:12:01.603Z,97271.73
2022-12-27T17:14:38.400Z,97266.35
2022-12-27T17:17:23.823Z,97269.06
2022-12-27T17:20:07.100Z,97279.70
2022-12-27T17:22:42.519Z,97282.78
2022-12-27T17:25:16.912Z,97293.00
2022-12-27T17:28:02.128Z,97295.62
2022-12-27T17:31:01.366Z,97305.48
2022-12-27T17:33:54.143Z,97308.00
2022-12-27T17:36:37.855Z,97311.67
2022-12-27T17:39:44.586Z,97319.62
2022-12-27T17:42:54.658Z,97318.23
2022-12-27T17:45:46.782Z,97316.08
2022-12-27T17:48:26.023Z,97303.78
2022-12-27T17:51:02.767Z,97302.48
2022-12-27T17:53:51.996Z,97303.04
2022-12-27T17:56:43.257Z,97314.64
2022-12-27T17:59:25.969Z,97323.02
2022-12-27T18:02:39.312Z,97331.41
2022-12-27T18:05:15.348Z,97340.31
2022-12-27T18:07:45.717Z,97341.21
2022-12-27T18:10:28.354Z,97336.83
2022-12-27T18:13:06.703Z,97344.29
2022-12-27T18:15:45.128Z,97338.96
2022-12-27T18:18:29.705Z,97340.57
2022-12-27T18:21:02.819Z,97342.08
2022-12-27T18:23:43.535Z,97345.61
2022-12-27T18:26:15.619Z,97341.09
2022-12-27T18:28:45.649Z,97345.02
2022-12-27T18:31:44.463Z,97341.44
2022-12-27T18:34:28.079Z,97350.08
2022-12-27T18:37:04.593Z,97350.31
2022-12-27T18:39:38.567Z,97356.14
2022-12-27T18:42:23.637Z,97359.45
2022-12-27T18:45:02.383Z,97364.17
2022-12-27T18:47:40.582Z,97358.82
2022-12-27T18:50:19.066Z,97363.30
2022-12-27T18:52:53.074Z,97361.45
2022-12-27T18:55:29.361Z,97364.39
2022-12-27T18:58:07.278Z,97368.45
2022-12-27T19:00:47.746Z,97362.93
2022-12-27T19:03:20.895Z,97357.77
2022-12-27T19:06:13.923Z,97364.22
2022-12-27T19:08:53.349Z,97372.80
2022-12-27T19:11:31.664Z,97390.86
2022-12-27T19:14:05.966Z,97397.73
2022-12-27T19:16:37.164Z,97400.69
2022-12-27T19:19:24.418Z,97411.13
2022-12-27T19:21:54.892Z,97410.60
2022-12-27T19:24:24.144Z,97408.34
2022-12-27T19:26:55.578Z,97406.32
2022-12-27T19:29:29.316Z,97408.05
2022-12-27T19:32:11.435Z,97402.39
2022-12-27T19:34:47.671Z,97402.80
2022-12-27T19:37:18.834Z,97401.80
2022-12-27T19:39:49.240Z,97400.98
2022-12-27T19:42:31.646Z,97406.11
2022-12-27T19:45:01.990Z,97405.79
2022-12-27T19:47:35.285Z,97414.34
2022-12-27T19:50:05.530Z,97408.96
2022-12-27T19:52:35.574Z,97415.44
2022-12-27T19:55:13.338Z,97415.84
2022-12-27T19:57:44.675Z,97423.54
2022-12-27T20:00:17.460Z,97425.31
2022-12-27T20:02:48.141Z,97418.22
2022-12-27T20:05:18.396Z,97414.91
2022-12-27T20:08:37.440Z,97426.45
2022-12-27T20:11:17.139Z,97422.48
2022-12-27T20:13:50.798Z,97417.51
2022-12-27T20:16:21.684Z,97422.40
2022-12-27T20:18:52.177Z,97422.13
2022-12-27T20:21:22.880Z,97427.53
2022-12-27T20:23:53.502Z,97430.19
2022-12-27T20:26:25.828Z,97433.58
2022-12-27T20:28:54.840Z,97437.60
2022-12-27T20:31:25.372Z,97439.41
2022-12-27T20:33:57.021Z,97449.17
2022-12-27T20:36:27.449Z,97449.81
2022-12-27T20:38:59.179Z,97445.76
2022-12-27T20:41:29.675Z,97448.38
2022-12-27T20:44:00.150Z,97454.80
2022-12-27T20:46:30.532Z,97459.20
2022-12-27T20:49:01.689Z,97467.86
2022-12-27T20:51:37.766Z,97470.05
2022-12-27T20:54:07.923Z,97477.51
2022-12-27T20:56:37.995Z,97483.54
2022-12-27T20:59:08.048Z,97481.83
2022-12-27T21:01:38.023Z,97485.81
2022-12-27T21:04:11.294Z,97488.68
2022-12-27T21:06:41.074Z,97488.11
2022-12-27T21:09:11.249Z,97488.70
2022-12-27T21:11:40.315Z,97493.49
2022-12-27T21:14:12.585Z,97492.34
2022-12-27T21:16:43.149Z,97494.55
2022-12-27T21:19:14.021Z,97498.67
2022-12-27T21:21:42.995Z,97503.00
2022-12-27T21:24:12.980Z,97499.98
2022-12-27T21:26:43.613Z,97508.86
2022-12-27T21:29:14.953Z,97504.46
2022-12-27T21:31:45.688Z,97509.23
2022-12-27T21:34:16.915Z,97516.60
2022-12-27T21:36:47.215Z,97512.58
2022-12-27T21:39:17.290Z,97515.88
2022-12-27T21:41:47.443Z,97519.88
2022-12-27T21:44:17.663Z,97520.04
2022-12-27T21:46:48.561Z,97527.62
2022-12-27T21:49:18.948Z,97525.93
2022-12-27T21:51:49.054Z,97529.70
2022-12-27T21:54:18.883Z,97531.98
2022-12-27T21:56:48.964Z,97536.63
2022-12-27T21:59:19.111Z,97536.34
2022-12-27T22:01:51.793Z,97532.58
2022-12-27T22:04:23.003Z,97524.14
2022-12-27T22:06:53.128Z,97530.91
2022-12-27T22:09:24.490Z,97526.13
2022-12-27T22:11:54.579Z,97526.29
2022-12-27T22:14:25.854Z,97524.48
2022-12-27T22:16:56.781Z,97524.41
2022-12-27T22:19:27.149Z,97528.86
2022-12-27T22:21:57.434Z,97530.13
2022-12-27T22:24:27.586Z,97535.30
2022-12-27T22:26:57.884Z,97535.21
2022-12-27T22:29:34.882Z,97533.98
2022-12-27T22:32:05.954Z,97537.56
2022-12-27T22:34:36.337Z,97536.77
2022-12-27T22:37:06.747Z,97531.58
2022-12-27T22:39:37.122Z,97526.99
2022-12-27T22:42:07.627Z,97531.16
2022-12-27T22:44:37.755Z,97537.79
2022-12-27T22:47:37.889Z,97532.85
2022-12-27T22:49:59.421Z,97533.67
2022-12-27T22:52:28.421Z,97531.09
2022-12-27T22:55:04.141Z,97530.74
2022-12-27T22:57:37.719Z,97533.75
2022-12-27T23:00:12.883Z,97527.26
2022-12-27T23:02:43.057Z,97531.24
2022-12-27T23:05:13.575Z,97533.52
2022-12-27T23:08:04.858Z,97533.89
2022-12-27T23:10:35.428Z,97534.05
2022-12-27T23:13:05.687Z,97535.55
2022-12-27T23:15:36.024Z,97535.59
2022-12-27T23:18:06.691Z,97534.77
2022-12-27T23:20:37.051Z,97533.93
2022-12-27T23:23:07.211Z,97535.37
2022-12-27T23:25:37.274Z,97533.35
2022-12-27T23:28:07.556Z,97523.79
2022-12-27T23:30:37.961Z,97522.55
2022-12-27T23:33:07.917Z,97517.48
2022-12-27T23:35:38.682Z,97518.95
2022-12-27T23:38:08.980Z,97521.02
2022-12-27T23:40:39.302Z,97527.13
2022-12-27T23:43:42.056Z,97520.73
2022-12-27T23:46:09.350Z,97521.02
2022-12-27T23:48:40.754Z,97522.63
2022-12-27T23:51:11.047Z,97524.57
2022-12-27T23:53:42.068Z,97525.44
2022-12-27T23:56:22.835Z,97527.33
2022-12-27T23:58:55.146Z,97527.73
